New Meadows, Idaho
Current Conditions -  °F | °C
As of 7:51 PM on Thursday 27 Nov 2014 (Local Time) from KMYL Reporting Station
Overcast Overcast  
Wind Chill: -2°   Ceiling: 7500
Heat Index:   Visibility: 10mi
Dew Point:   Wind: 7mph
Humidity: 96%   Direction: 180°S
Pressure: 30.04"   Gusts: NA
Location:  44.97°N, 116.28°W
Report Text: KMYL 280251Z AUTO 18006KT 10SM OVC075 02/01 A3004 RMK AO2 RAB21E35 SLP189 P0000 60019 T00170011 55017
Loading
Personal Weather Stations






























Interactive Weather Map New forecast layout! Learn more

10-Day Weather Forecast

Advertisements
Track Severe Weather on mobile